sensor_id;sensor_type;location;lat;lon;timestamp;pressure;altitude;pressure_sealevel;temperature;humidity
24558;BME280;12726;49.148;8.582;2023-08-06T00:00:22;99541.31;;;15.35;100.00
24558;BME280;12726;49.148;8.582;2023-08-06T00:03:08;99544.03;;;15.35;100.00
24558;BME280;12726;49.148;8.582;2023-08-06T00:05:53;99540.28;;;15.41;100.00
24558;BME280;12726;49.148;8.582;2023-08-06T00:08:40;99533.47;;;15.38;100.00
24558;BME280;12726;49.148;8.582;2023-08-06T00:11:25;99537.28;;;15.37;100.00
24558;BME280;12726;49.148;8.582;2023-08-06T00:14:10;99531.03;;;15.37;100.00
24558;BME280;12726;49.148;8.582;2023-08-06T00:16:56;99522.06;;;15.31;100.00
24558;BME280;12726;49.148;8.582;2023-08-06T00:19:42;99518.78;;;15.29;100.00
24558;BME280;12726;49.148;8.582;2023-08-06T00:22:27;99515.31;;;15.39;100.00
24558;BME280;12726;49.148;8.582;2023-08-06T00:25:13;99512.84;;;15.37;100.00
24558;BME280;12726;49.148;8.582;2023-08-06T00:27:59;99510.94;;;15.33;100.00
24558;BME280;12726;49.148;8.582;2023-08-06T00:30:44;99511.72;;;15.28;100.00
24558;BME280;12726;49.148;8.582;2023-08-06T00:33:29;99506.59;;;15.26;100.00
24558;BME280;12726;49.148;8.582;2023-08-06T00:36:15;99491.91;;;15.22;100.00
24558;BME280;12726;49.148;8.582;2023-08-06T00:39:00;99501.13;;;15.16;100.00
24558;BME280;12726;49.148;8.582;2023-08-06T00:41:47;99492.16;;;15.11;100.00
24558;BME280;12726;49.148;8.582;2023-08-06T00:44:32;99494.84;;;15.06;100.00
24558;BME280;12726;49.148;8.582;2023-08-06T00:47:18;99498.63;;;15.05;100.00
24558;BME280;12726;49.148;8.582;2023-08-06T00:50:04;99494.25;;;14.99;100.00
24558;BME280;12726;49.148;8.582;2023-08-06T00:52:50;99490.44;;;15.00;100.00
24558;BME280;12726;49.148;8.582;2023-08-06T00:55:36;99491.81;;;15.02;100.00
24558;BME280;12726;49.148;8.582;2023-08-06T00:58:23;99492.66;;;15.03;100.00
24558;BME280;12726;49.148;8.582;2023-08-06T01:01:08;99491.56;;;15.04;100.00
24558;BME280;12726;49.148;8.582;2023-08-06T01:03:54;99479.69;;;15.15;100.00
24558;BME280;12726;49.148;8.582;2023-08-06T01:06:44;99476.69;;;15.11;100.00
24558;BME280;12726;49.148;8.582;2023-08-06T01:09:40;99474.25;;;15.10;100.00
24558;BME280;12726;49.148;8.582;2023-08-06T01:12:35;99470.72;;;15.09;100.00
24558;BME280;12726;49.148;8.582;2023-08-06T01:15:29;99466.13;;;15.10;100.00
24558;BME280;12726;49.148;8.582;2023-08-06T01:18:16;99457.47;;;15.13;100.00
24558;BME280;12726;49.148;8.582;2023-08-06T01:21:03;99462.59;;;15.09;100.00
24558;BME280;12726;49.148;8.582;2023-08-06T01:23:48;99456.59;;;15.02;100.00
24558;BME280;12726;49.148;8.582;2023-08-06T01:26:37;99443.84;;;15.03;100.00
24558;BME280;12726;49.148;8.582;2023-08-06T01:29:29;99447.38;;;14.98;100.00
24558;BME280;12726;49.148;8.582;2023-08-06T01:32:16;99443.84;;;15.03;100.00
24558;BME280;12726;49.148;8.582;2023-08-06T01:35:04;99444.13;;;15.06;100.00
24558;BME280;12726;49.148;8.582;2023-08-06T01:37:51;99450.38;;;15.07;100.00
24558;BME280;12726;49.148;8.582;2023-08-06T01:40:36;99439.25;;;15.08;100.00
24558;BME280;12726;49.148;8.582;2023-08-06T01:43:22;99441.97;;;15.13;100.00
24558;BME280;12726;49.148;8.582;2023-08-06T01:46:07;99437.94;;;15.21;100.00
24558;BME280;12726;49.148;8.582;2023-08-06T01:48:53;99432.28;;;15.27;100.00
24558;BME280;12726;49.148;8.582;2023-08-06T01:51:38;99433.94;;;15.39;100.00
24558;BME280;12726;49.148;8.582;2023-08-06T01:54:25;99433.41;;;15.42;100.00
24558;BME280;12726;49.148;8.582;2023-08-06T01:57:10;99427.75;;;15.48;100.00
24558;BME280;12726;49.148;8.582;2023-08-06T01:59:55;99430.50;;;15.53;100.00
24558;BME280;12726;49.148;8.582;2023-08-06T02:02:41;99427.00;;;15.63;100.00
24558;BME280;12726;49.148;8.582;2023-08-06T02:05:26;99424.81;;;15.70;99.57
24558;BME280;12726;49.148;8.582;2023-08-06T02:08:11;99426.16;;;15.62;99.36
24558;BME280;12726;49.148;8.582;2023-08-06T02:10:58;99423.97;;;15.64;98.76
24558;BME280;12726;49.148;8.582;2023-08-06T02:13:45;99422.91;;;15.60;97.87
24558;BME280;12726;49.148;8.582;2023-08-06T02:16:31;99423.19;;;15.69;98.35
24558;BME280;12726;49.148;8.582;2023-08-06T02:19:16;99421.84;;;15.77;97.93
24558;BME280;12726;49.148;8.582;2023-08-06T02:22:02;99416.94;;;15.74;98.19
24558;BME280;12726;49.148;8.582;2023-08-06T02:24:49;99414.78;;;15.76;99.53
24558;BME280;12726;49.148;8.582;2023-08-06T02:27:36;99410.97;;;15.66;99.30
24558;BME280;12726;49.148;8.582;2023-08-06T02:30:22;99419.63;;;15.63;100.00
24558;BME280;12726;49.148;8.582;2023-08-06T02:33:07;99406.88;;;15.59;100.00
24558;BME280;12726;49.148;8.582;2023-08-06T02:35:58;99406.63;;;15.60;100.00
24558;BME280;12726;49.148;8.582;2023-08-06T02:38:44;99402.81;;;15.56;99.92
24558;BME280;12726;49.148;8.582;2023-08-06T02:41:30;99396.84;;;15.59;100.00
24558;BME280;12726;49.148;8.582;2023-08-06T02:44:16;99393.31;;;15.59;100.00
24558;BME280;12726;49.148;8.582;2023-08-06T02:47:02;99386.75;;;15.50;100.00
24558;BME280;12726;49.148;8.582;2023-08-06T02:49:47;99388.66;;;15.39;100.00
24558;BME280;12726;49.148;8.582;2023-08-06T02:52:32;99393.78;;;15.36;100.00
24558;BME280;12726;49.148;8.582;2023-08-06T02:55:18;99397.06;;;15.38;100.00
24558;BME280;12726;49.148;8.582;2023-08-06T02:58:03;99390.56;;;15.39;100.00
24558;BME280;12726;49.148;8.582;2023-08-06T03:01:00;99399.78;;;15.38;100.00
24558;BME280;12726;49.148;8.582;2023-08-06T03:03:46;99400.84;;;15.42;100.00
24558;BME280;12726;49.148;8.582;2023-08-06T03:06:32;99403.84;;;15.45;100.00
24558;BME280;12726;49.148;8.582;2023-08-06T03:09:17;99395.78;;;15.55;100.00
24558;BME280;12726;49.148;8.582;2023-08-06T03:12:03;99404.13;;;15.49;100.00
24558;BME280;12726;49.148;8.582;2023-08-06T03:14:48;99403.56;;;15.42;100.00
24558;BME280;12726;49.148;8.582;2023-08-06T03:17:35;99409.53;;;15.39;100.00
24558;BME280;12726;49.148;8.582;2023-08-06T03:20:20;99408.72;;;15.38;100.00
24558;BME280;12726;49.148;8.582;2023-08-06T03:23:06;99403.56;;;15.32;100.00
24558;BME280;12726;49.148;8.582;2023-08-06T03:25:51;99410.88;;;15.26;100.00
24558;BME280;12726;49.148;8.582;2023-08-06T03:28:36;99423.88;;;15.29;100.00
24558;BME280;12726;49.148;8.582;2023-08-06T03:31:22;99423.34;;;15.32;100.00
24558;BME280;12726;49.148;8.582;2023-08-06T03:34:08;99421.72;;;15.26;100.00
24558;BME280;12726;49.148;8.582;2023-08-06T03:36:54;99420.91;;;15.25;100.00
24558;BME280;12726;49.148;8.582;2023-08-06T03:39:39;99423.59;;;15.25;100.00
24558;BME280;12726;49.148;8.582;2023-08-06T03:42:25;99417.63;;;15.23;100.00
24558;BME280;12726;49.148;8.582;2023-08-06T03:45:10;99424.94;;;15.18;100.00
24558;BME280;12726;49.148;8.582;2023-08-06T03:47:55;99418.69;;;15.17;100.00
24558;BME280;12726;49.148;8.582;2023-08-06T03:50:42;99418.13;;;15.10;100.00
24558;BME280;12726;49.148;8.582;2023-08-06T03:53:27;99418.13;;;15.05;100.00
24558;BME280;12726;49.148;8.582;2023-08-06T03:56:13;99427.34;;;15.04;100.00
24558;BME280;12726;49.148;8.582;2023-08-06T03:58:58;99431.38;;;15.02;100.00
24558;BME280;12726;49.148;8.582;2023-08-06T04:01:44;99420.25;;;14.98;100.00
24558;BME280;12726;49.148;8.582;2023-08-06T04:04:29;99423.81;;;15.04;100.00
24558;BME280;12726;49.148;8.582;2023-08-06T04:07:16;99423.50;;;15.00;100.00
24558;BME280;12726;49.148;8.582;2023-08-06T04:10:02;99425.94;;;14.92;100.00
24558;BME280;12726;49.148;8.582;2023-08-06T04:12:47;99434.06;;;14.97;100.00
24558;BME280;12726;49.148;8.582;2023-08-06T04:15:33;99417.00;;;14.96;100.00
24558;BME280;12726;49.148;8.582;2023-08-06T04:18:18;99421.03;;;14.88;100.00
24558;BME280;12726;49.148;8.582;2023-08-06T04:21:04;99416.44;;;14.94;100.00
24558;BME280;12726;49.148;8.582;2023-08-06T04:23:50;99417.22;;;14.84;100.00
24558;BME280;12726;49.148;8.582;2023-08-06T04:26:36;99410.19;;;14.88;100.00
24558;BME280;12726;49.148;8.582;2023-08-06T04:29:21;99413.97;;;14.87;100.00
24558;BME280;12726;49.148;8.582;2023-08-06T04:32:07;99420.22;;;14.88;100.00
24558;BME280;12726;49.148;8.582;2023-08-06T04:34:55;99421.28;;;14.92;100.00
24558;BME280;12726;49.148;8.582;2023-08-06T04:37:40;99420.22;;;14.88;100.00
24558;BME280;12726;49.148;8.582;2023-08-06T04:40:27;99412.06;;;14.83;100.00
24558;BME280;12726;49.148;8.582;2023-08-06T04:43:12;99409.88;;;14.85;100.00
24558;BME280;12726;49.148;8.582;2023-08-06T04:45:57;99413.13;;;14.82;100.00
24558;BME280;12726;49.148;8.582;2023-08-06T04:48:43;99413.97;;;14.87;100.00
24558;BME280;12726;49.148;8.582;2023-08-06T04:51:28;99424.53;;;14.84;100.00
24558;BME280;12726;49.148;8.582;2023-08-06T04:54:13;99426.69;;;14.82;100.00
24558;BME280;12726;49.148;8.582;2023-08-06T04:57:00;99424.50;;;14.79;100.00
24558;BME280;12726;49.148;8.582;2023-08-06T04:59:45;99416.66;;;14.82;100.00
24558;BME280;12726;49.148;8.582;2023-08-06T05:02:30;99414.19;;;14.76;100.00
24558;BME280;12726;49.148;8.582;2023-08-06T05:05:16;99413.94;;;14.77;100.00
24558;BME280;12726;49.148;8.582;2023-08-06T05:08:01;99418.00;;;14.75;100.00
24558;BME280;12726;49.148;8.582;2023-08-06T05:10:47;99418.81;;;14.80;100.00
24558;BME280;12726;49.148;8.582;2023-08-06T05:13:34;99418.31;;;14.83;100.00
24558;BME280;12726;49.148;8.582;2023-08-06T05:16:19;99406.97;;;14.92;100.00
24558;BME280;12726;49.148;8.582;2023-08-06T05:19:04;99420.50;;;14.92;100.00
24558;BME280;12726;49.148;8.582;2023-08-06T05:21:50;99423.22;;;14.92;100.00
24558;BME280;12726;49.148;8.582;2023-08-06T05:24:35;99411.03;;;14.99;100.00
24558;BME280;12726;49.148;8.582;2023-08-06T05:27:20;99426.22;;;15.00;100.00
24558;BME280;12726;49.148;8.582;2023-08-06T05:30:08;99412.09;;;14.88;100.00
24558;BME280;12726;49.148;8.582;2023-08-06T05:32:54;99413.72;;;14.89;100.00
24558;BME280;12726;49.148;8.582;2023-08-06T05:35:40;99414.78;;;14.83;100.00
24558;BME280;12726;49.148;8.582;2023-08-06T05:38:26;99420.13;;;14.73;100.00
24558;BME280;12726;49.148;8.582;2023-08-06T05:41:12;99420.69;;;14.70;100.00
24558;BME280;12726;49.148;8.582;2023-08-06T05:43:57;99420.94;;;14.68;100.00
24558;BME280;12726;49.148;8.582;2023-08-06T05:46:44;99414.69;;;14.68;100.00
24558;BME280;12726;49.148;8.582;2023-08-06T05:49:29;99427.41;;;14.62;100.00
24558;BME280;12726;49.148;8.582;2023-08-06T05:52:14;99422.56;;;14.69;100.00
24558;BME280;12726;49.148;8.582;2023-08-06T05:54:59;99418.50;;;14.72;100.00
24558;BME280;12726;49.148;8.582;2023-08-06T05:57:44;99431.22;;;14.66;100.00
24558;BME280;12726;49.148;8.582;2023-08-06T06:00:30;99434.19;;;14.65;100.00
24558;BME280;12726;49.148;8.582;2023-08-06T06:03:17;99431.44;;;14.60;100.00
24558;BME280;12726;49.148;8.582;2023-08-06T06:06:02;99433.00;;;14.50;100.00
24558;BME280;12726;49.148;8.582;2023-08-06T06:08:47;99435.47;;;14.52;100.00
24558;BME280;12726;49.148;8.582;2023-08-06T06:11:33;99427.09;;;14.54;100.00
24558;BME280;12726;49.148;8.582;2023-08-06T06:14:19;99423.31;;;14.55;100.00
24558;BME280;12726;49.148;8.582;2023-08-06T06:17:04;99424.41;;;14.64;100.00
24558;BME280;12726;49.148;8.582;2023-08-06T06:19:50;99427.50;;;14.82;100.00
24558;BME280;12726;49.148;8.582;2023-08-06T06:22:36;99428.94;;;15.00;100.00
24558;BME280;12726;49.148;8.582;2023-08-06T06:25:21;99427.34;;;15.04;100.00
24558;BME280;12726;49.148;8.582;2023-08-06T06:28:06;99421.66;;;15.06;100.00
24558;BME280;12726;49.148;8.582;2023-08-06T06:30:52;99433.28;;;15.01;100.00
24558;BME280;12726;49.148;8.582;2023-08-06T06:33:37;99437.09;;;15.05;100.00
24558;BME280;12726;49.148;8.582;2023-08-06T06:36:24;99440.59;;;15.01;100.00
24558;BME280;12726;49.148;8.582;2023-08-06T06:39:09;99444.66;;;14.98;100.00
24558;BME280;12726;49.148;8.582;2023-08-06T06:41:54;99455.44;;;14.88;100.00
24558;BME280;12726;49.148;8.582;2023-08-06T06:44:40;99458.38;;;14.81;100.00
24558;BME280;12726;49.148;8.582;2023-08-06T06:47:25;99445.91;;;14.80;100.00
24558;BME280;12726;49.148;8.582;2023-08-06T06:50:11;99451.88;;;14.77;100.00
24558;BME280;12726;49.148;8.582;2023-08-06T06:52:57;99453.53;;;14.83;100.00
24558;BME280;12726;49.148;8.582;2023-08-06T06:55:43;99454.69;;;14.98;100.00
24558;BME280;12726;49.148;8.582;2023-08-06T06:58:28;99457.34;;;14.93;100.00
24558;BME280;12726;49.148;8.582;2023-08-06T07:01:14;99453.78;;;14.82;100.00
24558;BME280;12726;49.148;8.582;2023-08-06T07:03:59;99467.91;;;14.84;100.00
24558;BME280;12726;49.148;8.582;2023-08-06T07:06:48;99462.16;;;14.75;100.00
24558;BME280;12726;49.148;8.582;2023-08-06T07:09:35;99465.03;;;14.64;100.00
24558;BME280;12726;49.148;8.582;2023-08-06T07:12:20;99455.56;;;14.56;100.00
24558;BME280;12726;49.148;8.582;2023-08-06T07:15:06;99446.53;;;14.45;100.00
24558;BME280;12726;49.148;8.582;2023-08-06T07:17:51;99450.06;;;14.46;100.00
24558;BME280;12726;49.148;8.582;2023-08-06T07:20:37;99458.47;;;14.49;100.00
24558;BME280;12726;49.148;8.582;2023-08-06T07:23:23;99458.75;;;14.53;100.00
24558;BME280;12726;49.148;8.582;2023-08-06T07:26:10;99456.09;;;14.58;100.00
24558;BME280;12726;49.148;8.582;2023-08-06T07:28:55;99462.28;;;14.54;100.00
24558;BME280;12726;49.148;8.582;2023-08-06T07:31:41;99462.31;;;14.59;100.00
24558;BME280;12726;49.148;8.582;2023-08-06T07:34:26;99458.25;;;14.56;100.00
24558;BME280;12726;49.148;8.582;2023-08-06T07:37:11;99459.13;;;14.67;100.00
24558;BME280;12726;49.148;8.582;2023-08-06T07:39:56;99465.44;;;14.77;100.00
24558;BME280;12726;49.148;8.582;2023-08-06T07:42:43;99458.72;;;14.95;100.00
24558;BME280;12726;49.148;8.582;2023-08-06T07:45:32;99464.44;;;14.99;100.00
24558;BME280;12726;49.148;8.582;2023-08-06T07:48:17;99467.16;;;14.99;100.00
24558;BME280;12726;49.148;8.582;2023-08-06T07:51:03;99462.31;;;15.11;100.00
24558;BME280;12726;49.148;8.582;2023-08-06T07:53:48;99460.69;;;15.15;100.00
24558;BME280;12726;49.148;8.582;2023-08-06T07:56:33;99468.09;;;15.35;100.00
24558;BME280;12726;49.148;8.582;2023-08-06T07:59:22;99462.78;;;15.65;100.00
24558;BME280;12726;49.148;8.582;2023-08-06T08:02:07;99467.44;;;15.75;100.00
24558;BME280;12726;49.148;8.582;2023-08-06T08:04:52;99462.25;;;15.63;100.00
24558;BME280;12726;49.148;8.582;2023-08-06T08:07:38;99471.66;;;15.50;100.00
24558;BME280;12726;49.148;8.582;2023-08-06T08:10:23;99470.84;;;15.40;100.00
24558;BME280;12726;49.148;8.582;2023-08-06T08:13:09;99452.66;;;15.40;100.00
24558;BME280;12726;49.148;8.582;2023-08-06T08:15:58;99471.19;;;15.58;100.00
24558;BME280;12726;49.148;8.582;2023-08-06T08:18:43;99461.75;;;16.01;100.00
24558;BME280;12726;49.148;8.582;2023-08-06T08:21:29;99462.03;;;16.10;100.00
24558;BME280;12726;49.148;8.582;2023-08-06T08:24:14;99456.34;;;16.12;100.00
24558;BME280;12726;49.148;8.582;2023-08-06T08:26:59;99469.06;;;16.21;100.00
24558;BME280;12726;49.148;8.582;2023-08-06T08:29:45;99460.66;;;16.08;100.00
24558;BME280;12726;49.148;8.582;2023-08-06T08:32:32;99466.34;;;16.01;100.00
24558;BME280;12726;49.148;8.582;2023-08-06T08:35:17;99456.31;;;15.91;100.00
24558;BME280;12726;49.148;8.582;2023-08-06T08:38:02;99451.13;;;15.64;100.00
24558;BME280;12726;49.148;8.582;2023-08-06T08:40:51;99466.56;;;15.59;100.00
24558;BME280;12726;49.148;8.582;2023-08-06T08:43:39;99465.16;;;15.46;100.00
24558;BME280;12726;49.148;8.582;2023-08-06T08:46:26;99458.91;;;15.41;100.00
24558;BME280;12726;49.148;8.582;2023-08-06T08:49:13;99461.25;;;15.17;100.00
24558;BME280;12726;49.148;8.582;2023-08-06T08:51:59;99451.72;;;15.04;100.00
24558;BME280;12726;49.148;8.582;2023-08-06T08:54:48;99436.53;;;14.98;100.00
24558;BME280;12726;49.148;8.582;2023-08-06T08:57:35;99452.22;;;14.91;100.00
24558;BME280;12726;49.148;8.582;2023-08-06T09:00:20;99449.53;;;14.96;100.00
24558;BME280;12726;49.148;8.582;2023-08-06T09:03:06;99448.78;;;15.16;100.00
24558;BME280;12726;49.148;8.582;2023-08-06T09:05:54;99459.72;;;15.46;100.00
24558;BME280;12726;49.148;8.582;2023-08-06T09:08:46;99463.38;;;15.82;100.00
24558;BME280;12726;49.148;8.582;2023-08-06T09:11:35;99465.28;;;16.07;100.00
24558;BME280;12726;49.148;8.582;2023-08-06T09:14:23;99461.75;;;16.62;100.00
24558;BME280;12726;49.148;8.582;2023-08-06T09:17:09;99463.00;;;16.95;100.00
24558;BME280;12726;49.148;8.582;2023-08-06T09:19:55;99456.91;;;17.23;100.00
24558;BME280;12726;49.148;8.582;2023-08-06T09:22:42;99454.38;;;17.42;100.00
24558;BME280;12726;49.148;8.582;2023-08-06T09:25:28;99459.44;;;17.00;100.00
24558;BME280;12726;49.148;8.582;2023-08-06T09:28:15;99474.22;;;16.68;100.00
24558;BME280;12726;49.148;8.582;2023-08-06T09:31:00;99477.50;;;16.30;100.00
24558;BME280;12726;49.148;8.582;2023-08-06T09:33:45;99474.50;;;16.16;100.00
24558;BME280;12726;49.148;8.582;2023-08-06T09:36:33;99474.25;;;15.97;100.00
24558;BME280;12726;49.148;8.582;2023-08-06T09:39:21;99477.75;;;15.93;100.00
24558;BME280;12726;49.148;8.582;2023-08-06T09:42:07;99472.88;;;15.95;100.00
24558;BME280;12726;49.148;8.582;2023-08-06T09:45:05;99466.88;;;15.93;100.00
24558;BME280;12726;49.148;8.582;2023-08-06T09:47:55;99457.94;;;15.82;100.00
24558;BME280;12726;49.148;8.582;2023-08-06T09:50:41;99462.25;;;15.68;100.00
24558;BME280;12726;49.148;8.582;2023-08-06T09:53:27;99465.22;;;15.66;100.00
24558;BME280;12726;49.148;8.582;2023-08-06T09:56:14;99471.19;;;15.53;100.00
24558;BME280;12726;49.148;8.582;2023-08-06T09:59:01;99477.69;;;15.57;100.00
24558;BME280;12726;49.148;8.582;2023-08-06T10:01:46;99474.13;;;15.52;100.00
24558;BME280;12726;49.148;8.582;2023-08-06T10:04:31;99473.31;;;15.46;100.00
24558;BME280;12726;49.148;8.582;2023-08-06T10:07:17;99484.09;;;15.36;100.00
24558;BME280;12726;49.148;8.582;2023-08-06T10:10:03;99479.81;;;15.50;100.00
24558;BME280;12726;49.148;8.582;2023-08-06T10:12:52;99490.66;;;15.50;100.00
24558;BME280;12726;49.148;8.582;2023-08-06T10:15:39;99499.06;;;15.49;100.00
24558;BME280;12726;49.148;8.582;2023-08-06T10:18:25;99496.34;;;15.49;100.00
24558;BME280;12726;49.148;8.582;2023-08-06T10:21:11;99501.25;;;15.47;100.00
24558;BME280;12726;49.148;8.582;2023-08-06T10:23:57;99503.22;;;15.61;100.00
24558;BME280;12726;49.148;8.582;2023-08-06T10:26:43;99505.13;;;15.61;100.00
24558;BME280;12726;49.148;8.582;2023-08-06T10:29:37;99497.53;;;15.73;100.00
24558;BME280;12726;49.148;8.582;2023-08-06T10:32:46;99505.69;;;15.68;100.00
24558;BME280;12726;49.148;8.582;2023-08-06T10:35:35;99514.06;;;15.72;100.00
24558;BME280;12726;49.148;8.582;2023-08-06T10:38:22;99508.38;;;15.73;100.00
24558;BME280;12726;49.148;8.582;2023-08-06T10:41:22;99519.50;;;15.66;100.00
24558;BME280;12726;49.148;8.582;2023-08-06T10:44:08;99529.22;;;15.57;100.00
24558;BME280;12726;49.148;8.582;2023-08-06T10:46:55;99529.44;;;15.46;100.00
24558;BME280;12726;49.148;8.582;2023-08-06T10:49:40;99539.72;;;15.39;100.00
24558;BME280;12726;49.148;8.582;2023-08-06T10:52:26;99538.56;;;15.19;100.00
24558;BME280;12726;49.148;8.582;2023-08-06T10:55:12;99543.97;;;15.19;100.00
24558;BME280;12726;49.148;8.582;2023-08-06T10:57:57;99543.94;;;15.14;100.00
24558;BME280;12726;49.148;8.582;2023-08-06T11:00:43;99544.97;;;15.08;100.00
24558;BME280;12726;49.148;8.582;2023-08-06T11:03:31;99548.50;;;15.09;100.00
24558;BME280;12726;49.148;8.582;2023-08-06T11:06:17;99556.66;;;15.09;100.00
24558;BME280;12726;49.148;8.582;2023-08-06T11:09:03;99556.31;;;15.00;100.00
24558;BME280;12726;49.148;8.582;2023-08-06T11:11:49;99569.88;;;15.00;100.00
24558;BME280;12726;49.148;8.582;2023-08-06T11:14:34;99579.53;;;14.86;100.00
24558;BME280;12726;49.148;8.582;2023-08-06T11:17:20;99557.25;;;14.74;100.00
24558;BME280;12726;49.148;8.582;2023-08-06T11:20:07;99569.09;;;14.63;100.00
24558;BME280;12726;49.148;8.582;2023-08-06T11:22:53;99566.31;;;14.58;100.00
24558;BME280;12726;49.148;8.582;2023-08-06T11:25:44;99591.00;;;14.61;100.00
24558;BME280;12726;49.148;8.582;2023-08-06T11:28:29;99600.50;;;14.64;100.00
24558;BME280;12726;49.148;8.582;2023-08-06T11:31:21;99589.06;;;14.57;100.00
24558;BME280;12726;49.148;8.582;2023-08-06T11:34:06;99591.78;;;14.57;100.00
24558;BME280;12726;49.148;8.582;2023-08-06T11:36:54;99600.44;;;14.54;100.00
24558;BME280;12726;49.148;8.582;2023-08-06T11:39:46;99608.03;;;14.57;100.00
24558;BME280;12726;49.148;8.582;2023-08-06T11:42:32;99614.00;;;14.59;100.00
24558;BME280;12726;49.148;8.582;2023-08-06T11:45:22;99618.31;;;14.55;100.00
24558;BME280;12726;49.148;8.582;2023-08-06T11:48:07;99624.63;;;14.65;100.00
24558;BME280;12726;49.148;8.582;2023-08-06T11:50:54;99619.78;;;14.67;100.00
24558;BME280;12726;49.148;8.582;2023-08-06T11:53:48;99623.88;;;14.70;100.00
24558;BME280;12726;49.148;8.582;2023-08-06T11:56:33;99632.31;;;14.78;100.00
24558;BME280;12726;49.148;8.582;2023-08-06T11:59:19;99627.78;;;14.84;100.00
24558;BME280;12726;49.148;8.582;2023-08-06T12:02:08;99644.56;;;14.86;100.00
24558;BME280;12726;49.148;8.582;2023-08-06T12:05:02;99644.03;;;14.84;100.00
24558;BME280;12726;49.148;8.582;2023-08-06T12:07:49;99644.84;;;14.84;100.00
24558;BME280;12726;49.148;8.582;2023-08-06T12:10:36;99650.88;;;14.92;100.00
24558;BME280;12726;49.148;8.582;2023-08-06T12:13:22;99660.09;;;14.91;100.00
24558;BME280;12726;49.148;8.582;2023-08-06T12:16:07;99650.06;;;14.91;100.00
24558;BME280;12726;49.148;8.582;2023-08-06T12:18:52;99664.72;;;14.95;100.00
24558;BME280;12726;49.148;8.582;2023-08-06T12:21:38;99667.69;;;14.94;100.00
24558;BME280;12726;49.148;8.582;2023-08-06T12:24:23;99658.78;;;14.98;100.00
24558;BME280;12726;49.148;8.582;2023-08-06T12:27:10;99662.31;;;14.99;100.00
24558;BME280;12726;49.148;8.582;2023-08-06T12:29:55;99667.22;;;15.07;100.00
24558;BME280;12726;49.148;8.582;2023-08-06T12:32:41;99667.56;;;15.15;100.00
24558;BME280;12726;49.148;8.582;2023-08-06T12:35:26;99672.00;;;15.26;100.00
24558;BME280;12726;49.148;8.582;2023-08-06T12:38:11;99677.72;;;15.30;100.00
24558;BME280;12726;49.148;8.582;2023-08-06T12:40:57;99684.53;;;15.38;100.00
24558;BME280;12726;49.148;8.582;2023-08-06T12:43:44;99680.16;;;15.32;100.00
24558;BME280;12726;49.148;8.582;2023-08-06T12:46:29;99682.66;;;15.38;100.00
24558;BME280;12726;49.148;8.582;2023-08-06T12:49:15;99685.94;;;15.40;100.00
24558;BME280;12726;49.148;8.582;2023-08-06T12:52:00;99694.56;;;15.37;100.00
24558;BME280;12726;49.148;8.582;2023-08-06T12:54:46;99691.34;;;15.40;99.59
24558;BME280;12726;49.148;8.582;2023-08-06T12:57:31;99694.38;;;15.49;99.00
24558;BME280;12726;49.148;8.582;2023-08-06T13:00:19;99690.13;;;15.58;96.86
24558;BME280;12726;49.148;8.582;2023-08-06T13:03:05;99705.13;;;15.71;96.31
24558;BME280;12726;49.148;8.582;2023-08-06T13:05:50;99694.56;;;15.74;98.91
24558;BME280;12726;49.148;8.582;2023-08-06T13:08:36;99695.66;;;15.78;97.42
24558;BME280;12726;49.148;8.582;2023-08-06T13:11:21;99717.03;;;15.64;97.71
24558;BME280;12726;49.148;8.582;2023-08-06T13:14:08;99722.03;;;15.46;99.60
24558;BME280;12726;49.148;8.582;2023-08-06T13:16:55;99721.47;;;15.44;100.00
24558;BME280;12726;49.148;8.582;2023-08-06T13:19:40;99712.75;;;15.42;100.00
24558;BME280;12726;49.148;8.582;2023-08-06T13:22:25;99711.38;;;15.34;100.00
24558;BME280;12726;49.148;8.582;2023-08-06T13:25:11;99725.47;;;15.36;100.00
24558;BME280;12726;49.148;8.582;2023-08-06T13:27:58;99721.94;;;15.36;100.00
24558;BME280;12726;49.148;8.582;2023-08-06T13:30:43;99727.84;;;15.27;100.00
24558;BME280;12726;49.148;8.582;2023-08-06T13:33:30;99734.66;;;15.30;100.00
24558;BME280;12726;49.148;8.582;2023-08-06T13:36:15;99735.44;;;15.25;100.00
24558;BME280;12726;49.148;8.582;2023-08-06T13:39:01;99746.25;;;15.20;100.00
24558;BME280;12726;49.148;8.582;2023-08-06T13:41:48;99748.91;;;15.15;100.00
24558;BME280;12726;49.148;8.582;2023-08-06T13:44:33;99758.09;;;15.09;100.00
24558;BME280;12726;49.148;8.582;2023-08-06T13:47:19;99747.25;;;15.09;100.00
24558;BME280;12726;49.148;8.582;2023-08-06T13:50:06;99766.53;;;15.13;100.00
24558;BME280;12726;49.148;8.582;2023-08-06T13:52:52;99773.06;;;15.17;100.00
24558;BME280;12726;49.148;8.582;2023-08-06T13:55:39;99761.72;;;15.20;100.00
24558;BME280;12726;49.148;8.582;2023-08-06T13:58:24;99761.19;;;15.23;100.00
24558;BME280;12726;49.148;8.582;2023-08-06T14:01:11;99758.56;;;15.33;100.00
24558;BME280;12726;49.148;8.582;2023-08-06T14:03:57;99758.69;;;15.48;100.00
24558;BME280;12726;49.148;8.582;2023-08-06T14:06:43;99762.31;;;15.59;100.00
24558;BME280;12726;49.148;8.582;2023-08-06T14:09:29;99759.63;;;15.64;100.00
24558;BME280;12726;49.148;8.582;2023-08-06T14:12:14;99766.19;;;15.68;97.41
24558;BME280;12726;49.148;8.582;2023-08-06T14:15:00;99768.09;;;15.73;98.21
24558;BME280;12726;49.148;8.582;2023-08-06T14:17:47;99786.28;;;15.72;98.46
24558;BME280;12726;49.148;8.582;2023-08-06T14:20:33;99785.09;;;15.58;96.00
24558;BME280;12726;49.148;8.582;2023-08-06T14:23:19;99790.22;;;15.54;97.40
24558;BME280;12726;49.148;8.582;2023-08-06T14:26:05;99787.50;;;15.54;97.77
24558;BME280;12726;49.148;8.582;2023-08-06T14:28:50;99784.84;;;15.59;97.60